Weather observations for the past three days for
St. Cloud Regional Airport
Metric (Imperial)
Date Time (cdt) Wind (kph) Vis. (km) Weather Sky Cond. Temperature (ºC) Relative Humidity Wind Chill (°C) Heat Index (°C) Pressure Precipitation (cm)
Air Dwpt 6 hour altimeter (cm) sea level (mb) 1 hr 3 hr 6 hr
Max. Min.
02 17:53 NE 9 16.09 Partly Cloudy SCT095 28.9 16.7 48% 29 75.84 1011.4
02 16:53 E 11 16.09 Fair CLR 30 16.1 43% 30 75.87 1011.7
02 15:53 E 13 16.09 Fair CLR 30 15.6 42% 30 75.87 1011.8
02 14:53 E 9 16.09 Fair CLR 30 15.6 42% 30 75.9 1012.0
02 13:53 Vrbl 7 16.09 Fair CLR 28.3 15.6 46% 28 75.95 1012.6
02 12:53 Vrbl 6 16.09 Fair CLR 27.8 13.9 28.3 16.1 43% 28 76 1013.3
02 11:53 Vrbl 9 16.09 Fair CLR 26.7 14.4 47% 27 76 1013.3
02 10:53 E 9 16.09 Fair CLR 25 16.1 58% 26 76 1013.5
02 09:53 Calm 16.09 Fair CLR 22.2 16.1 68% 76 1013.6
02 08:53 Vrbl 6 16.09 Fair CLR 21.7 16.1 71% 76 1013.6
02 07:53 NE 7 16.09 A Few Clouds FEW110 19.4 16.1 81% 76.02 1014.0
02 06:53 NE 6 16.09 Mostly Cloudy BKN085 16.1 15.6 20.6 16.1 97% 76 1013.7
02 05:53 Calm 16.09 Mostly Cloudy BKN080 17.2 15.6 90% 76.02 1013.7
02 04:53 NW 6 16.09 A Few Clouds FEW095 16.7 15 90% 76 1013.5
02 03:53 NE 6 16.09 Partly Cloudy SCT085 17.2 15.6 90% 76 1013.4
02 02:53 Calm 16.09 A Few Clouds FEW100 19.4 15.6 79% 75.97 1013.1
02 01:53 SE 11 16.09 A Few Clouds FEW120 18.9 17.2 90% 75.97 1013.1
02 00:53 Calm 16.09 A Few Clouds FEW120 20 15.6 25.6 18.9 76% 76.02 1013.5
01 23:53 Calm 0.00 Partly Cloudy FEW075 SCT100 20.6 16.7 78% 76.05 1014.1
01 22:53 Calm 16.09 Partly Cloudy SCT120 20 17.8 87% 76.05 1014.0
01 21:53 Calm 16.09 A Few Clouds FEW120 21.7 16.7 73% 76.07 1014.4
01 20:53 Calm 16.09 A Few Clouds FEW070 21.1 16.7 76% 76.02 1013.8
01 19:53 Calm 0.00 A Few Clouds FEW075 FEW090 23.3 16.7 67% 76 1013.8
01 18:53 N 6 16.09 Fair CLR 25.6 15 30 25.6 52% 26 76.02 1014.0
01 17:53 NW 13 16.09 Fair CLR 27.8 11.7 37% 27 76.02 1014.1
01 16:53 NW 15 16.09 Fair CLR 29.4 10.6 31% 28 76.02 1013.9
01 15:53 SW 7 16.09 Fair CLR 28.9 10.6 32% 28 76 1013.7
01 14:53 NW 7 16.09 Fair CLR 28.9 11.1 33% 28 76.05 1014.2
01 13:53 Vrbl 6 16.09 Fair CLR 28.3 12.2 37% 28 76.05 1014.4
01 12:53 N 7 16.09 Fair CLR 27.8 12.8 28.3 11.7 40% 27 76.1 1015.1
01 11:53 N 9 16.09 Fair CLR 26.1 13.9 47% 27 76.12 1015.3
01 10:53 Calm 16.09 Fair CLR 24.4 14.4 54% 26 76.15 1015.7
01 09:53 NW 7 16.09 Fair CLR 22.8 14.4 59% 76.15 1015.6
01 08:53 W 7 16.09 Fair CLR 20 15.6 76% 76.15 1015.7
01 07:53 Calm 16.09 Fair CLR 15.6 14.4 93% 76.12 1015.3
01 06:53 Calm 16.09 Fair CLR 11.7 11.7 15 11.7 100% 76.07 1014.6
01 05:53 Calm 2.82 Fog/Mist CLR 12.2 12.2 100% 76.05 1014.2
01 04:53 Calm 1.61 Fog/Mist CLR 12.8 12.8 100% 76.02 1013.8
01 03:53 Calm 16.09 Fair CLR 13.9 13.3 96% 76.02 1013.7
01 02:53 Calm 16.09 Fair CLR 13.9 13.9 100% 76 1013.5
01 01:53 Calm 16.09 Fair CLR 14.4 13.9 97% 76.02 1013.9
01 00:53 Calm 16.09 Fair CLR 15 14.4 28.9 15 96% 76.05 1014.0
31 23:53 Calm 16.09 Fair CLR 16.1 15 93% 76.02 1013.7
31 22:53 Calm 16.09 Fair CLR 17.2 15.6 90% 76 1013.6
31 21:53 Calm 16.09 Fair CLR 18.3 15.6 84% 75.97 1013.3
31 20:53 Calm 16.09 Fair CLR 20.6 16.1 76% 75.95 1012.9
31 19:53 Calm 16.09 Fair CLR 23.3 17.2 69% 75.92 1012.5
31 18:53 Calm 16.09 Fair CLR 28.9 15 31.7 28.9 43% 29 75.92 1012.2
31 17:53 NW 11 16.09 Fair CLR 30.6 12.8 34% 30 75.92 1012.2
31 16:53 N 9 16.09 Fair CLR 31.1 13.3 34% 30 75.9 1011.8
31 15:53 NW 11 16.09 Fair CLR 31.7 11.7 29% 30 75.9 1011.9
31 14:53 N 13 16.09 Fair CLR 30.6 13.3 35% 30 75.87 1011.6
31 13:53 Vrbl 11 16.09 Fair CLR 30 12.8 35% 29 75.87 1011.7
31 12:53 N 13 16.09 Fair CLR 28.9 13.9 28.9 18.9 40% 28 75.87 1011.7
31 11:53 W 13 16.09 Fair CLR 27.8 18.3 56% 29 75.9 1011.8
31 10:53 NW 19 16.09 Fair CLR 25.6 20 71% 27 75.87 1011.7
31 09:53 NW 15 16.09 Mostly Cloudy BKN011 23.3 20.6 85% 75.82 1011.1
31 08:53 NW 13 11.27 Overcast OVC009 22.2 21.1 94% 75.77 1010.3
31 07:53 Calm 0.80 Fog VV002 20 20 100% 75.72 1009.6
31 06:53 Calm 0.40 Fog VV001 18.9 18.9 22.8 18.9 100% 75.62 1008.3
31 05:53 Calm 0.40 Fog VV002 19.4 19.4 100% 75.59 1008.1
31 04:53 Calm 1.21 Fog/Mist CLR 20.6 20.6 100% 75.57 1007.5
31 03:53 SE 9 8.05 Fog/Mist CLR 21.1 20.6 97% 75.54 1007.2
31 02:53 S 9 12.87 Partly Cloudy SCT010 21.7 21.1 96% 75.54 1007.1
31 01:53 S 11 0.00 Fair CLR 22.2 21.1 94% 75.54 1007.2
31 00:53 SE 13 16.09 Fair CLR 22.8 21.1 26.1 22.8 90% 75.54 1007.3
30 23:53 SE 11 16.09 Fair CLR 22.8 21.1 90% 75.59 1008.1
30 22:53 E 7 16.09 Fair CLR 23.3 21.1 88% 75.64 1008.8
30 21:53 E 13 16.09 Fair CLR 23.9 21.1 84% 24 75.62 1008.4
30 20:53 E 9 16.09 Partly Cloudy SCT037 23.9 21.1 84% 24 75.62 1008.5
30 19:53 E 11 16.09 Overcast OVC040 25 21.7 82% 26 75.62 1008.4
30 18:53 E 13 16.09 Fair CLR 26.1 21.7 27.2 22.8 77% 28 75.62 1008.2
Date Time (cdt) Wind (kph) Vis. (km) Weather Sky Cond. Air Dwpt Max. Min. Relative Humidity Wind Chill (°C) Heat Index (°C) altimeter (cm) sea level (mb) 1 hr 3 hr 6 hr
6 hour
Temperature (ºC) Pressure Precipitation (cm)